Time;durP1;ratioP1;P1;durP2;ratioP2;P2;SDS_P1;SDS_P2;PMS_P1;PMS_P2;Temp;Humidity;BMP_temperature;BMP_pressure;BME280_temperature;BME280_humidity;BME280_pressure;Samples;Min_cycle;Max_cycle;Signal;HPM_P1;HPM_P2
2021/03/22 00:01:28;;;;;;;29.85;4.55;;;;;;;;;;5119241;28;20115;-84
2021/03/22 00:03:54;;;;;;;32.30;4.28;;;;;;;;;;5119413;28;20048;-84
2021/03/22 00:06:21;;;;;;;35.17;4.32;;;;;;;;;;5116804;28;20047;-84
2021/03/22 00:08:47;;;;;;;34.03;4.72;;;;;;;;;;5115857;28;20055;-84
2021/03/22 00:11:13;;;;;;;42.40;5.57;;;;;;;;;;5118010;28;20476;-84
2021/03/22 00:13:39;;;;;;;33.00;6.68;;;;;;;;;;5116877;28;20047;-85
2021/03/22 00:16:08;;;;;;;43.00;7.05;;;;;;;;;;5119115;28;20047;-84
2021/03/22 00:18:43;;;;;;;42.17;7.47;;;;;;;;;;5119065;28;20507;-84
2021/03/22 00:21:15;;;;;;;34.90;5.90;;;;;;;;;;5117766;28;20084;-84
2021/03/22 00:23:41;;;;;;;35.50;4.85;;;;;;;;;;5115715;28;20077;-84
2021/03/22 00:26:08;;;;;;;31.80;4.40;;;;;;;;;;5109778;28;20146;-84
2021/03/22 00:28:39;;;;;;;51.03;5.07;;;;;;;;;;5114691;28;20300;-84
2021/03/22 00:31:10;;;;;;;43.53;5.60;;;;;;;;;;5109790;28;20060;-84
2021/03/22 00:33:36;;;;;;;38.15;5.60;;;;;;;;;;5122092;28;20055;-85
2021/03/22 00:36:05;;;;;;;41.58;5.72;;;;;;;;;;5114926;28;20043;-84
2021/03/22 00:38:38;;;;;;;35.33;5.55;;;;;;;;;;5112798;28;20131;-85
2021/03/22 00:41:06;;;;;;;45.65;7.28;;;;;;;;;;5102880;28;20055;-83
2021/03/22 00:43:34;;;;;;;34.05;6.20;;;;;;;;;;5110066;28;20093;-84
2021/03/22 00:46:03;;;;;;;44.92;6.70;;;;;;;;;;5113543;28;20142;-84
2021/03/22 00:48:31;;;;;;;47.35;8.90;;;;;;;;;;5114325;28;20107;-83
2021/03/22 00:50:58;;;;;;;38.08;7.05;;;;;;;;;;5111420;28;20069;-84
2021/03/22 00:53:26;;;;;;;48.00;7.60;;;;;;;;;;5117412;28;20036;-84
2021/03/22 00:55:55;;;;;;;34.63;5.82;;;;;;;;;;5122919;27;20146;-84
2021/03/22 00:58:31;;;;;;;42.33;7.03;;;;;;;;;;5129692;28;20059;-84
2021/03/22 01:01:00;;;;;;;32.78;6.68;;;;;;;;;;5113522;28;20053;-84
2021/03/22 01:03:28;;;;;;;32.60;5.70;;;;;;;;;;5112058;28;20048;-84
2021/03/22 01:05:54;;;;;;;38.28;6.15;;;;;;;;;;5133557;28;20074;-84
2021/03/22 01:08:31;;;;;;;35.45;6.43;;;;;;;;;;5113808;28;20058;-84
2021/03/22 01:11:04;;;;;;;47.88;7.68;;;;;;;;;;5116879;28;20051;-84
2021/03/22 01:13:44;;;;;;;36.42;6.85;;;;;;;;;;5124138;28;20086;-84
2021/03/22 01:16:47;;;;;;;38.05;5.93;;;;;;;;;;5106439;28;20063;-84
2021/03/22 01:19:15;;;;;;;50.38;8.23;;;;;;;;;;5104550;28;20247;-84
2021/03/22 01:21:45;;;;;;;38.35;6.80;;;;;;;;;;5112810;28;20059;-84
2021/03/22 01:24:16;;;;;;;41.78;9.00;;;;;;;;;;5125790;28;20438;-84
2021/03/22 01:26:42;;;;;;;45.00;9.60;;;;;;;;;;5126915;28;20051;-84
2021/03/22 01:29:28;;;;;;;51.13;8.30;;;;;;;;;;5114217;28;20086;-84
2021/03/22 01:31:59;;;;;;;41.33;7.20;;;;;;;;;;5115612;27;20450;-84
2021/03/22 01:34:26;;;;;;;54.03;8.00;;;;;;;;;;5108858;28;20044;-84
2021/03/22 01:36:56;;;;;;;35.75;7.53;;;;;;;;;;5105428;28;20055;-84
2021/03/22 01:39:24;;;;;;;36.25;6.32;;;;;;;;;;5120171;28;20063;-84
2021/03/22 01:41:53;;;;;;;33.75;6.30;;;;;;;;;;5118491;28;20497;-84
2021/03/22 01:44:19;;;;;;;43.92;6.82;;;;;;;;;;5114719;28;20246;-84
2021/03/22 01:46:51;;;;;;;39.72;6.10;;;;;;;;;;5113553;28;20051;-84
2021/03/22 01:49:21;;;;;;;31.88;6.72;;;;;;;;;;5114371;28;20048;-84
2021/03/22 01:51:47;;;;;;;30.63;6.60;;;;;;;;;;5107373;28;20281;-84
2021/03/22 01:54:14;;;;;;;35.78;5.53;;;;;;;;;;5118821;28;20043;-84
2021/03/22 01:56:49;;;;;;;38.63;6.97;;;;;;;;;;5111238;28;20051;-84
2021/03/22 01:59:16;;;;;;;41.70;7.65;;;;;;;;;;5113128;28;20047;-83
2021/03/22 02:01:44;;;;;;;31.83;7.25;;;;;;;;;;5103210;28;20108;-83
2021/03/22 02:04:11;;;;;;;48.67;8.77;;;;;;;;;;5108467;28;20043;-84
2021/03/22 02:06:37;;;;;;;42.30;8.18;;;;;;;;;;5115857;28;20069;-84
2021/03/22 02:09:03;;;;;;;54.45;9.13;;;;;;;;;;5106004;28;20047;-84
2021/03/22 02:11:35;;;;;;;40.38;7.60;;;;;;;;;;5103868;28;20069;-84
2021/03/22 02:14:06;;;;;;;42.92;8.10;;;;;;;;;;5124058;28;20055;-84
2021/03/22 02:16:51;;;;;;;38.53;6.82;;;;;;;;;;5132618;27;20052;-84
2021/03/22 02:19:33;;;;;;;34.40;9.32;;;;;;;;;;5129344;28;20051;-84
2021/03/22 02:22:17;;;;;;;34.35;7.35;;;;;;;;;;5122580;27;20109;-84
2021/03/22 02:24:52;;;;;;;38.97;8.55;;;;;;;;;;5121954;27;20048;-84
2021/03/22 02:27:37;;;;;;;40.17;10.07;;;;;;;;;;5120086;28;20126;-84
2021/03/22 02:30:18;;;;;;;35.13;9.10;;;;;;;;;;5117158;28;20039;-84
2021/03/22 02:32:47;;;;;;;37.60;9.73;;;;;;;;;;5104689;28;20052;-84
2021/03/22 02:35:19;;;;;;;49.83;8.95;;;;;;;;;;5117199;28;20078;-84
2021/03/22 02:37:51;;;;;;;38.63;8.73;;;;;;;;;;5105012;28;20040;-84
2021/03/22 02:40:22;;;;;;;44.13;7.28;;;;;;;;;;5107613;28;20051;-84
2021/03/22 02:42:52;;;;;;;35.50;6.63;;;;;;;;;;5112315;28;20309;-84
2021/03/22 02:45:21;;;;;;;53.15;9.15;;;;;;;;;;5104233;28;20039;-84
2021/03/22 02:47:47;;;;;;;35.90;7.82;;;;;;;;;;5099419;28;20087;-84
2021/03/22 02:50:15;;;;;;;37.15;6.85;;;;;;;;;;5099697;28;20427;-84
2021/03/22 02:52:50;;;;;;;44.75;7.60;;;;;;;;;;5107573;28;20104;-83
2021/03/22 02:55:28;;;;;;;45.97;7.32;;;;;;;;;;5118511;28;20038;-84
2021/03/22 02:57:59;;;;;;;34.85;6.38;;;;;;;;;;5122069;28;20273;-84
2021/03/22 03:00:34;;;;;;;33.58;6.43;;;;;;;;;;5116984;28;20066;-84
2021/03/22 03:03:03;;;;;;;40.33;7.15;;;;;;;;;;5117748;28;20056;-84
2021/03/22 03:05:35;;;;;;;34.40;7.18;;;;;;;;;;5118294;28;20071;-84
2021/03/22 03:08:04;;;;;;;41.13;8.15;;;;;;;;;;5119485;28;20052;-84
2021/03/22 03:10:31;;;;;;;46.80;6.65;;;;;;;;;;5118499;28;20398;-84
2021/03/22 03:12:57;;;;;;;37.55;7.28;;;;;;;;;;5119192;28;20502;-84
2021/03/22 03:15:23;;;;;;;42.00;7.65;;;;;;;;;;5126229;28;20076;-84
2021/03/22 03:17:52;;;;;;;43.53;8.77;;;;;;;;;;5131226;28;20051;-84
2021/03/22 03:20:20;;;;;;;45.10;8.00;;;;;;;;;;5131752;28;20048;-84
2021/03/22 03:22:46;;;;;;;38.03;8.27;;;;;;;;;;5124072;28;20044;-84
2021/03/22 03:25:13;;;;;;;40.25;7.13;;;;;;;;;;5120994;27;20052;-84
2021/03/22 03:27:39;;;;;;;42.53;7.65;;;;;;;;;;5120036;28;20104;-84
2021/03/22 03:30:06;;;;;;;35.97;6.32;;;;;;;;;;5118565;28;20048;-84
2021/03/22 03:32:32;;;;;;;51.97;8.52;;;;;;;;;;5120189;28;20081;-84
2021/03/22 03:34:59;;;;;;;36.88;7.82;;;;;;;;;;5119682;28;20075;-84
2021/03/22 03:37:28;;;;;;;34.50;8.30;;;;;;;;;;5119760;28;20058;-84
2021/03/22 03:39:56;;;;;;;31.75;7.38;;;;;;;;;;5117755;28;20031;-84
2021/03/22 03:42:22;;;;;;;34.55;7.28;;;;;;;;;;5118008;28;20071;-84
2021/03/22 03:44:48;;;;;;;31.40;7.53;;;;;;;;;;5117773;28;20074;-84
2021/03/22 03:47:14;;;;;;;31.00;7.22;;;;;;;;;;5118719;28;20071;-84
2021/03/22 03:49:43;;;;;;;38.65;7.28;;;;;;;;;;5118935;28;20051;-84
2021/03/22 03:52:15;;;;;;;33.70;6.40;;;;;;;;;;5119084;28;20058;-86
2021/03/22 03:54:44;;;;;;;32.15;7.22;;;;;;;;;;5120914;27;20064;-84
2021/03/22 03:57:13;;;;;;;38.47;7.22;;;;;;;;;;5118510;28;20152;-83
2021/03/22 03:59:39;;;;;;;28.20;6.95;;;;;;;;;;5116704;28;20104;-83
2021/03/22 04:02:05;;;;;;;34.05;6.35;;;;;;;;;;5119248;28;20048;-84
2021/03/22 04:04:34;;;;;;;28.15;5.32;;;;;;;;;;5122224;28;20048;-83
2021/03/22 04:07:00;;;;;;;30.67;6.88;;;;;;;;;;5121944;28;20069;-84
2021/03/22 04:09:29;;;;;;;30.45;7.20;;;;;;;;;;5122019;28;20048;-84
2021/03/22 04:11:55;;;;;;;43.60;7.72;;;;;;;;;;5122134;28;20047;-84
2021/03/22 04:14:25;;;;;;;30.90;7.10;;;;;;;;;;5123409;28;20060;-84
2021/03/22 04:16:51;;;;;;;30.02;7.47;;;;;;;;;;5123029;28;20039;-84
2021/03/22 04:19:18;;;;;;;29.60;6.85;;;;;;;;;;5122937;28;20055;-84
2021/03/22 04:21:46;;;;;;;33.72;6.43;;;;;;;;;;5120809;28;20147;-84
2021/03/22 04:24:15;;;;;;;33.88;6.13;;;;;;;;;;5121502;27;20105;-84
2021/03/22 04:26:44;;;;;;;39.22;6.85;;;;;;;;;;5122429;28;20112;-85
2021/03/22 04:29:10;;;;;;;36.25;6.38;;;;;;;;;;5120121;28;20047;-85
2021/03/22 04:31:37;;;;;;;30.98;7.40;;;;;;;;;;5119629;28;20048;-85
2021/03/22 04:34:04;;;;;;;38.10;6.47;;;;;;;;;;5121511;28;20116;-85
2021/03/22 04:36:35;;;;;;;29.95;6.15;;;;;;;;;;5119411;28;20047;-83
2021/03/22 04:39:03;;;;;;;26.10;5.72;;;;;;;;;;5120921;28;20064;-84
2021/03/22 04:41:29;;;;;;;37.53;6.68;;;;;;;;;;5120737;28;20074;-84
2021/03/22 04:44:02;;;;;;;26.80;5.50;;;;;;;;;;5121259;28;20239;-85
2021/03/22 04:46:28;;;;;;;34.83;6.10;;;;;;;;;;5131161;28;20128;-83
2021/03/22 04:48:58;;;;;;;36.78;6.45;;;;;;;;;;5135719;28;20051;-81
2021/03/22 04:51:27;;;;;;;35.28;7.07;;;;;;;;;;5135885;28;20044;-85
2021/03/22 04:54:08;;;;;;;36.00;6.45;;;;;;;;;;5136104;28;20049;-83
2021/03/22 04:56:34;;;;;;;37.80;8.95;;;;;;;;;;5136756;28;20115;-84
2021/03/22 04:59:01;;;;;;;30.13;6.65;;;;;;;;;;5133714;28;20047;-84
2021/03/22 05:01:27;;;;;;;38.42;6.05;;;;;;;;;;5130366;28;20054;-84
2021/03/22 05:03:53;;;;;;;23.08;6.07;;;;;;;;;;5120612;28;20434;-84
2021/03/22 05:06:22;;;;;;;35.65;7.22;;;;;;;;;;5119972;28;20055;-85
2021/03/22 05:08:48;;;;;;;26.38;5.40;;;;;;;;;;5118162;28;20198;-85
2021/03/22 05:11:20;;;;;;;33.17;5.45;;;;;;;;;;5116725;28;20047;-84
2021/03/22 05:13:53;;;;;;;25.80;5.85;;;;;;;;;;5118910;28;20058;-85
2021/03/22 05:16:19;;;;;;;30.25;5.38;;;;;;;;;;5119233;28;20055;-85
2021/03/22 05:18:48;;;;;;;19.52;5.25;;;;;;;;;;5118533;28;20547;-84
2021/03/22 05:21:15;;;;;;;30.85;5.35;;;;;;;;;;5118865;28;20354;-84
2021/03/22 05:23:41;;;;;;;29.63;5.88;;;;;;;;;;5116088;28;20043;-85
2021/03/22 05:26:09;;;;;;;26.77;6.55;;;;;;;;;;5118784;27;20054;-84
2021/03/22 05:28:40;;;;;;;23.30;6.47;;;;;;;;;;5118021;27;20051;-84
2021/03/22 05:31:07;;;;;;;32.03;5.78;;;;;;;;;;5116421;28;20066;-84
2021/03/22 05:33:34;;;;;;;29.50;5.53;;;;;;;;;;5116347;28;20063;-84
2021/03/22 05:36:04;;;;;;;33.72;5.72;;;;;;;;;;5104369;27;20048;-84
2021/03/22 05:38:30;;;;;;;33.28;6.20;;;;;;;;;;5096287;28;20052;-85
2021/03/22 05:41:00;;;;;;;27.45;5.22;;;;;;;;;;5096348;28;20052;-84
2021/03/22 05:43:45;;;;;;;21.95;4.95;;;;;;;;;;5095469;28;20055;-84
2021/03/22 05:46:20;;;;;;;29.73;4.65;;;;;;;;;;5102125;28;20064;-84
2021/03/22 05:48:55;;;;;;;20.17;4.93;;;;;;;;;;5110021;28;20119;-84
2021/03/22 05:51:39;;;;;;;28.88;5.28;;;;;;;;;;5098206;28;20288;-84
2021/03/22 05:54:05;;;;;;;24.98;7.03;;;;;;;;;;5095414;28;20048;-84
2021/03/22 05:56:41;;;;;;;28.55;5.68;;;;;;;;;;5112381;28;20098;-84
2021/03/22 05:59:19;;;;;;;25.80;5.38;;;;;;;;;;5115021;28;20382;-85
2021/03/22 06:01:49;;;;;;;25.88;5.53;;;;;;;;;;5094388;28;20070;-85
2021/03/22 06:04:15;;;;;;;22.58;4.70;;;;;;;;;;5095703;28;20090;-85
2021/03/22 06:06:42;;;;;;;28.30;5.18;;;;;;;;;;5095128;28;20055;-86
2021/03/22 06:09:24;;;;;;;28.23;5.30;;;;;;;;;;5095063;28;20142;-87
2021/03/22 06:12:09;;;;;;;29.42;5.70;;;;;;;;;;5092556;28;20267;-87
2021/03/22 06:14:56;;;;;;;30.75;5.88;;;;;;;;;;5093746;28;20059;-87
2021/03/22 06:17:32;;;;;;;33.67;5.78;;;;;;;;;;5112432;27;20047;-86
2021/03/22 06:20:16;;;;;;;21.45;5.78;;;;;;;;;;5132692;27;20104;-88
2021/03/22 06:22:48;;;;;;;35.85;6.65;;;;;;;;;;5091367;28;20048;-88
2021/03/22 06:25:23;;;;;;;29.80;5.65;;;;;;;;;;5090754;28;20582;-87
2021/03/22 06:27:53;;;;;;;26.17;5.75;;;;;;;;;;5103619;28;20063;-87
2021/03/22 06:30:23;;;;;;;31.35;6.07;;;;;;;;;;5109748;28;20179;-86
2021/03/22 06:32:50;;;;;;;33.35;6.82;;;;;;;;;;5111825;28;20061;-87
2021/03/22 06:35:20;;;;;;;31.15;6.15;;;;;;;;;;5113420;28;20054;-87
2021/03/22 06:37:53;;;;;;;25.52;5.85;;;;;;;;;;5114373;28;20051;-83
2021/03/22 06:40:31;;;;;;;33.92;5.32;;;;;;;;;;5102383;28;20048;-82
2021/03/22 06:43:04;;;;;;;25.73;5.20;;;;;;;;;;5116972;28;20243;-85
2021/03/22 06:45:35;;;;;;;21.70;4.97;;;;;;;;;;5112611;27;20366;-87
2021/03/22 06:48:17;;;;;;;20.15;4.22;;;;;;;;;;5098394;28;20080;-83
2021/03/22 06:50:48;;;;;;;24.83;5.47;;;;;;;;;;5095752;28;20079;-82
2021/03/22 06:53:34;;;;;;;30.08;4.90;;;;;;;;;;5095583;28;20113;-87
2021/03/22 06:56:29;;;;;;;22.92;4.47;;;;;;;;;;5093810;28;20141;-86
2021/03/22 06:59:12;;;;;;;27.65;4.13;;;;;;;;;;5093011;28;20070;-88
2021/03/22 07:01:39;;;;;;;20.02;4.53;;;;;;;;;;5105708;28;20038;-87
2021/03/22 07:04:25;;;;;;;20.02;4.65;;;;;;;;;;5105258;28;20044;-88
2021/03/22 07:07:06;;;;;;;21.38;4.20;;;;;;;;;;5104202;28;20044;-88
2021/03/22 07:09:42;;;;;;;19.00;4.13;;;;;;;;;;5095368;28;20083;-87
2021/03/22 07:12:23;;;;;;;21.45;3.90;;;;;;;;;;5095512;28;20048;-86
2021/03/22 07:14:51;;;;;;;15.18;4.18;;;;;;;;;;5097509;28;20341;-87
2021/03/22 07:17:17;;;;;;;21.95;4.47;;;;;;;;;;5112915;28;20073;-84
2021/03/22 07:20:03;;;;;;;23.40;4.97;;;;;;;;;;5108859;28;20063;-84
2021/03/22 07:22:34;;;;;;;27.58;7.72;;;;;;;;;;5100685;27;20048;-84
2021/03/22 07:25:31;;;;;;;22.90;8.18;;;;;;;;;;5090516;28;20048;-85
2021/03/22 07:28:05;;;;;;;20.35;5.15;;;;;;;;;;5110805;28;20104;-84
2021/03/22 07:30:41;;;;;;;21.70;3.60;;;;;;;;;;5113483;28;20055;-84
2021/03/22 07:33:07;;;;;;;;;;;;;;;;;;5120195;27;20048;-84
2021/03/22 07:35:36;;;;;;;13.57;3.80;;;;;;;;;;5126077;28;20003;-85
2021/03/22 07:38:02;;;;;;;20.88;3.90;;;;;;;;;;5125809;28;20053;-85
2021/03/22 07:40:51;;;;;;;16.73;3.35;;;;;;;;;;5118836;27;20039;-85
2021/03/22 07:43:40;;;;;;;8.77;3.28;;;;;;;;;;5119200;27;20065;-85
2021/03/22 07:46:28;;;;;;;25.77;3.72;;;;;;;;;;5123538;28;20051;-85
2021/03/22 07:48:57;;;;;;;13.32;3.30;;;;;;;;;;5118922;28;20249;-85
2021/03/22 07:51:57;;;;;;;13.23;3.30;;;;;;;;;;5099606;28;20048;-85
2021/03/22 07:54:49;;;;;;;11.85;3.08;;;;;;;;;;5070833;28;20113;-85
2021/03/22 07:57:26;;;;;;;8.13;3.10;;;;;;;;;;5100241;28;20150;-84
2021/03/22 08:00:06;;;;;;;13.90;3.80;;;;;;;;;;5099215;28;20351;-84
2021/03/22 08:03:05;;;;;;;11.65;2.80;;;;;;;;;;5106955;28;20226;-84
2021/03/22 08:06:06;;;;;;;9.68;2.50;;;;;;;;;;5091908;28;20062;-84
2021/03/22 08:08:35;;;;;;;10.52;2.90;;;;;;;;;;5097332;28;20090;-84
2021/03/22 08:11:11;;;;;;;4.65;2.28;;;;;;;;;;5095126;28;20408;-84
2021/03/22 08:13:40;;;;;;;4.70;2.20;;;;;;;;;;5097817;27;20048;-84
2021/03/22 08:16:14;;;;;;;8.05;2.20;;;;;;;;;;5106199;27;20304;-85
2021/03/22 08:18:56;;;;;;;10.93;2.53;;;;;;;;;;5124795;28;20146;-84
2021/03/22 08:21:33;;;;;;;4.40;2.25;;;;;;;;;;5130855;28;20047;-84
2021/03/22 08:24:36;;;;;;;8.13;2.40;;;;;;;;;;5104005;28;20396;-84
2021/03/22 08:27:08;;;;;;;8.38;2.40;;;;;;;;;;5074083;28;20044;-86
2021/03/22 08:29:35;;;;;;;4.28;2.00;;;;;;;;;;5119559;27;20044;-85
2021/03/22 08:32:20;;;;;;;7.70;2.30;;;;;;;;;;5132180;27;20071;-86
2021/03/22 08:34:48;;;;;;;8.82;2.20;;;;;;;;;;5125089;28;20052;-85
2021/03/22 08:37:26;;;;;;;10.10;2.22;;;;;;;;;;5133263;27;20231;-85
2021/03/22 08:39:58;;;;;;;11.05;2.53;;;;;;;;;;5132131;27;20059;-84
2021/03/22 08:42:26;;;;;;;10.90;2.75;;;;;;;;;;5130887;28;20147;-85
2021/03/22 08:45:05;;;;;;;9.45;2.53;;;;;;;;;;5124536;27;20103;-85
2021/03/22 08:47:51;;;;;;;9.80;2.28;;;;;;;;;;5114244;27;20115;-85
2021/03/22 08:50:23;;;;;;;12.93;2.83;;;;;;;;;;5110397;28;20071;-86
2021/03/22 08:53:02;;;;;;;6.70;2.05;;;;;;;;;;5102877;28;20100;-85
2021/03/22 08:55:54;;;;;;;11.80;2.50;;;;;;;;;;5121344;28;20077;-85
2021/03/22 08:58:26;;;;;;;13.20;2.55;;;;;;;;;;5118469;28;20077;-85
2021/03/22 09:01:16;;;;;;;12.10;3.00;;;;;;;;;;5123687;28;20051;-86
2021/03/22 09:03:44;;;;;;;8.48;3.22;;;;;;;;;;5123148;28;20051;-86
2021/03/22 09:06:25;;;;;;;6.20;1.73;;;;;;;;;;5123028;28;20047;-86
2021/03/22 09:08:53;;;;;;;7.38;2.58;;;;;;;;;;5117823;28;20051;-87
2021/03/22 09:11:26;;;;;;;12.73;2.83;;;;;;;;;;5117709;28;20070;-87
2021/03/22 09:14:17;;;;;;;11.77;2.70;;;;;;;;;;5113022;28;20332;-86
2021/03/22 09:16:59;;;;;;;6.78;2.00;;;;;;;;;;5125204;28;20047;-83
2021/03/22 09:20:16;;;;;;;6.82;1.90;;;;;;;;;;5118637;27;20153;-83
2021/03/22 09:22:47;;;;;;;4.47;1.98;;;;;;;;;;5117775;28;20308;-83
2021/03/22 09:25:48;;;;;;;5.95;1.50;;;;;;;;;;5117014;28;20044;-84
2021/03/22 09:28:26;;;;;;;7.38;1.90;;;;;;;;;;5116077;28;20075;-83
2021/03/22 09:30:57;;;;;;;6.93;2.53;;;;;;;;;;5114439;28;20071;-82
2021/03/22 09:33:59;;;;;;;7.78;2.53;;;;;;;;;;5110396;28;20057;-81
2021/03/22 09:36:33;;;;;;;10.07;2.70;;;;;;;;;;5058773;28;20224;-82
2021/03/22 09:39:03;;;;;;;6.13;2.70;;;;;;;;;;5114917;28;20547;-82
2021/03/22 09:41:58;;;;;;;8.10;2.40;;;;;;;;;;5106904;28;20040;-81
2021/03/22 09:44:29;;;;;;;6.05;2.05;;;;;;;;;;5093960;28;20039;-81
2021/03/22 09:47:16;;;;;;;7.22;2.22;;;;;;;;;;5126226;27;20265;-80
2021/03/22 09:50:01;;;;;;;4.05;2.08;;;;;;;;;;5109734;28;20051;-80
2021/03/22 09:52:40;;;;;;;;;;;;;;;;;;5110582;28;20060;-80
2021/03/22 09:55:22;;;;;;;5.13;1.83;;;;;;;;;;5113846;28;20249;-82
2021/03/22 09:57:55;;;;;;;8.70;2.20;;;;;;;;;;5105100;28;20178;-80
2021/03/22 10:00:51;;;;;;;6.25;2.60;;;;;;;;;;5110675;28;20124;-81
2021/03/22 10:03:29;;;;;;;7.00;1.40;;;;;;;;;;5098081;28;20063;-81
2021/03/22 10:05:58;;;;;;;4.95;1.80;;;;;;;;;;5109865;28;20054;-81
2021/03/22 10:08:34;;;;;;;10.27;2.53;;;;;;;;;;5109747;28;20051;-82
2021/03/22 10:11:40;;;;;;;6.43;1.90;;;;;;;;;;5106177;28;20076;-81
2021/03/22 10:14:15;;;;;;;7.30;2.33;;;;;;;;;;5075505;28;20277;-81
2021/03/22 10:16:45;;;;;;;7.75;2.15;;;;;;;;;;5088318;28;20040;-81
2021/03/22 10:19:17;;;;;;;10.45;2.83;;;;;;;;;;5089833;28;20043;-81
2021/03/22 10:21:50;;;;;;;4.65;2.25;;;;;;;;;;5088587;28;20055;-80
2021/03/22 10:24:25;;;;;;;6.50;2.20;;;;;;;;;;5086819;28;20348;-80
2021/03/22 10:26:53;;;;;;;6.55;1.83;;;;;;;;;;5089740;28;20059;-80
2021/03/22 10:29:25;;;;;;;4.95;1.60;;;;;;;;;;5093540;28;20070;-80
2021/03/22 10:31:55;;;;;;;6.95;1.85;;;;;;;;;;5101633;28;20157;-80
2021/03/22 10:34:23;;;;;;;4.75;1.90;;;;;;;;;;5105631;28;20100;-80
2021/03/22 10:37:17;;;;;;;4.73;2.20;;;;;;;;;;5107616;28;20276;-81
2021/03/22 10:39:50;;;;;;;8.70;2.20;;;;;;;;;;5043935;28;20707;-81
2021/03/22 10:42:25;;;;;;;8.95;2.63;;;;;;;;;;5098915;28;20051;-80
2021/03/22 10:44:52;;;;;;;7.80;2.65;;;;;;;;;;5106060;28;20132;-82
2021/03/22 10:47:23;;;;;;;7.85;2.67;;;;;;;;;;5107546;28;20315;-81
2021/03/22 10:49:52;;;;;;;9.48;2.63;;;;;;;;;;5107287;28;20133;-80
2021/03/22 10:52:29;;;;;;;10.20;1.83;;;;;;;;;;5104961;27;20194;-81
2021/03/22 10:54:55;;;;;;;12.20;2.80;;;;;;;;;;5100970;28;20245;-80
2021/03/22 10:57:44;;;;;;;4.28;1.88;;;;;;;;;;5092318;28;20078;-81
2021/03/22 11:00:28;;;;;;;8.63;2.80;;;;;;;;;;5085288;28;20151;-81
2021/03/22 11:03:00;;;;;;;6.85;1.95;;;;;;;;;;5108391;27;20419;-82
2021/03/22 11:05:40;;;;;;;10.80;2.17;;;;;;;;;;5108489;27;20039;-81
2021/03/22 11:08:14;;;;;;;8.80;2.38;;;;;;;;;;5137711;27;20243;-81
2021/03/22 11:10:40;;;;;;;7.97;3.20;;;;;;;;;;5100292;27;20039;-80
2021/03/22 11:13:11;;;;;;;11.07;3.28;;;;;;;;;;5108289;27;20066;-80
2021/03/22 11:15:38;;;;;;;8.77;2.60;;;;;;;;;;5116551;27;20256;-80
2021/03/22 11:18:16;;;;;;;6.13;1.60;;;;;;;;;;5109742;28;20059;-80
2021/03/22 11:20:44;;;;;;;5.82;1.55;;;;;;;;;;5112120;27;20323;-80
2021/03/22 11:23:29;;;;;;;5.28;1.20;;;;;;;;;;5104419;27;20047;-81
2021/03/22 11:26:09;;;;;;;5.78;1.00;;;;;;;;;;5115599;27;20257;-81
2021/03/22 11:28:35;;;;;;;5.22;0.90;;;;;;;;;;5107517;28;20054;-82
2021/03/22 11:31:13;;;;;;;7.05;1.10;;;;;;;;;;5105561;28;20051;-80
2021/03/22 11:34:00;;;;;;;2.45;0.90;;;;;;;;;;5137204;27;20090;-82
2021/03/22 11:36:31;;;;;;;4.13;0.98;;;;;;;;;;5110471;28;20058;-80
2021/03/22 11:39:11;;;;;;;3.85;1.38;;;;;;;;;;5131957;27;20047;-81
2021/03/22 11:41:45;;;;;;;1.95;1.02;;;;;;;;;;5108918;28;20496;-83
2021/03/22 11:44:15;;;;;;;4.88;1.60;;;;;;;;;;5123075;28;20210;-80
2021/03/22 11:46:45;;;;;;;2.65;1.35;;;;;;;;;;5137386;28;20160;-81
2021/03/22 11:49:32;;;;;;;6.40;0.90;;;;;;;;;;5107115;27;20602;-81
2021/03/22 11:52:00;;;;;;;5.85;1.10;;;;;;;;;;5094580;28;20090;-81
2021/03/22 11:54:31;;;;;;;4.05;1.00;;;;;;;;;;5099147;28;20241;-81
2021/03/22 11:57:10;;;;;;;6.60;1.00;;;;;;;;;;5115620;28;20115;-82
2021/03/22 11:59:46;;;;;;;6.15;1.45;;;;;;;;;;5108459;27;20134;-81
2021/03/22 12:02:12;;;;;;;3.93;0.90;;;;;;;;;;5106451;28;20069;-81
2021/03/22 12:04:39;;;;;;;3.67;1.33;;;;;;;;;;5106858;28;20073;-81
2021/03/22 12:07:09;;;;;;;3.50;1.10;;;;;;;;;;5117552;28;20039;-81
2021/03/22 12:09:39;;;;;;;2.70;1.00;;;;;;;;;;5103572;28;20094;-82
2021/03/22 12:12:15;;;;;;;3.80;0.90;;;;;;;;;;5097859;28;20477;-81
2021/03/22 12:14:41;;;;;;;5.55;1.20;;;;;;;;;;5105456;28;20051;-80
2021/03/22 12:17:28;;;;;;;4.53;1.25;;;;;;;;;;5117780;27;20054;-81
2021/03/22 12:19:57;;;;;;;5.97;0.77;;;;;;;;;;5105314;28;20342;-82
2021/03/22 12:22:26;;;;;;;0.70;0.60;;;;;;;;;;5102779;28;20048;-81
2021/03/22 12:24:55;;;;;;;3.63;1.10;;;;;;;;;;5089441;28;20132;-81
2021/03/22 12:27:39;;;;;;;3.35;0.60;;;;;;;;;;5103302;27;20136;-81
2021/03/22 12:30:09;;;;;;;3.22;0.80;;;;;;;;;;5112670;27;20367;-82
2021/03/22 12:32:35;;;;;;;2.47;0.70;;;;;;;;;;5107624;28;20058;-83
2021/03/22 12:35:13;;;;;;;3.80;0.93;;;;;;;;;;5115011;28;20149;-82
2021/03/22 12:37:40;;;;;;;3.42;1.00;;;;;;;;;;5110636;28;20113;-84
2021/03/22 12:40:12;;;;;;;2.97;0.98;;;;;;;;;;5110408;27;20116;-83
2021/03/22 12:42:39;;;;;;;4.38;1.60;;;;;;;;;;5106530;28;20108;-84
2021/03/22 12:45:07;;;;;;;6.75;1.77;;;;;;;;;;5108674;28;20039;-83
2021/03/22 12:47:34;;;;;;;7.60;2.00;;;;;;;;;;5108781;28;20043;-83
2021/03/22 12:50:16;;;;;;;5.28;1.83;;;;;;;;;;5086748;28;20543;-83
2021/03/22 12:52:42;;;;;;;4.72;1.70;;;;;;;;;;5097362;28;20083;-83
2021/03/22 12:55:11;;;;;;;2.55;1.08;;;;;;;;;;5111194;27;20454;-84
2021/03/22 12:57:37;;;;;;;4.38;1.40;;;;;;;;;;5104615;28;20152;-83
2021/03/22 13:00:04;;;;;;;6.18;1.00;;;;;;;;;;5108295;28;20229;-84
2021/03/22 13:02:33;;;;;;;5.82;1.17;;;;;;;;;;5106912;28;20458;-83
2021/03/22 13:05:28;;;;;;;6.53;1.63;;;;;;;;;;5109498;28;20145;-83
2021/03/22 13:07:59;;;;;;;8.65;1.52;;;;;;;;;;5107069;28;20192;-83
2021/03/22 13:10:29;;;;;;;9.05;1.40;;;;;;;;;;5107478;28;20589;-83
2021/03/22 13:12:56;;;;;;;5.15;1.20;;;;;;;;;;5107525;28;20208;-83
2021/03/22 13:15:29;;;;;;;6.15;1.10;;;;;;;;;;5107214;28;20394;-81
2021/03/22 13:17:59;;;;;;;7.95;1.52;;;;;;;;;;5107062;28;20044;-84
2021/03/22 13:20:28;;;;;;;5.38;1.25;;;;;;;;;;5097821;27;20048;-85
2021/03/22 13:23:07;;;;;;;9.55;1.35;;;;;;;;;;5097280;28;20285;-83
2021/03/22 13:25:33;;;;;;;8.43;1.67;;;;;;;;;;5104157;28;20047;-82
2021/03/22 13:28:02;;;;;;;10.48;1.80;;;;;;;;;;5109047;27;20047;-82
2021/03/22 13:30:28;;;;;;;5.70;1.35;;;;;;;;;;5108058;28;20047;-83
2021/03/22 13:32:57;;;;;;;8.55;1.23;;;;;;;;;;5107357;28;20098;-83
2021/03/22 13:35:26;;;;;;;5.32;1.48;;;;;;;;;;5109753;28;20295;-83
2021/03/22 13:37:53;;;;;;;8.88;1.35;;;;;;;;;;5108360;28;20098;-83
2021/03/22 13:40:22;;;;;;;4.05;1.38;;;;;;;;;;5090653;28;20040;-82
2021/03/22 13:42:48;;;;;;;7.60;1.50;;;;;;;;;;5094162;28;20063;-82
2021/03/22 13:45:19;;;;;;;12.85;3.15;;;;;;;;;;5101111;28;20056;-82
2021/03/22 13:47:49;;;;;;;8.18;1.98;;;;;;;;;;5100456;28;20585;-83
2021/03/22 13:50:34;;;;;;;;;;;;;;;;;;;;;
2021/03/22 13:53:05;;;;;;;11.25;2.28;;;;;;;;;;5100709;28;20455;-84
2021/03/22 13:55:47;;;;;;;8.80;2.47;;;;;;;;;;5109126;27;20264;-82
2021/03/22 13:58:16;;;;;;;10.93;2.03;;;;;;;;;;5108625;28;20168;-84
2021/03/22 14:00:48;;;;;;;11.60;2.22;;;;;;;;;;5106205;28;20112;-83
2021/03/22 14:03:17;;;;;;;16.77;2.50;;;;;;;;;;5105826;28;20051;-83
2021/03/22 14:05:45;;;;;;;13.02;2.30;;;;;;;;;;5103812;28;20043;-83
2021/03/22 14:08:16;;;;;;;15.43;2.80;;;;;;;;;;5088653;28;20044;-82
2021/03/22 14:10:46;;;;;;;11.23;2.33;;;;;;;;;;5094512;28;20047;-83
2021/03/22 14:13:13;;;;;;;13.68;3.88;;;;;;;;;;5110422;28;20046;-82
2021/03/22 14:15:40;;;;;;;8.95;2.38;;;;;;;;;;5104553;28;20138;-82
2021/03/22 14:18:18;;;;;;;17.95;2.40;;;;;;;;;;5101874;28;20197;-83
2021/03/22 14:20:45;;;;;;;8.30;1.52;;;;;;;;;;5112518;28;20084;-81
2021/03/22 14:23:15;;;;;;;12.07;2.22;;;;;;;;;;5092153;27;20048;-82
2021/03/22 14:25:41;;;;;;;11.32;2.10;;;;;;;;;;5096775;28;20043;-83
2021/03/22 14:28:07;;;;;;;11.90;2.42;;;;;;;;;;5105705;27;20214;-84
2021/03/22 14:30:35;;;;;;;7.38;1.90;;;;;;;;;;5098055;28;20044;-82
2021/03/22 14:33:05;;;;;;;7.57;1.67;;;;;;;;;;5108391;28;20059;-83
2021/03/22 14:35:36;;;;;;;8.10;2.55;;;;;;;;;;5133605;27;20119;-85
2021/03/22 14:38:17;;;;;;;9.73;1.90;;;;;;;;;;5122395;27;20151;-83
2021/03/22 14:40:49;;;;;;;6.53;1.85;;;;;;;;;;5102039;28;20067;-82
2021/03/22 14:43:17;;;;;;;12.90;2.03;;;;;;;;;;5103190;28;20065;-84
2021/03/22 14:45:49;;;;;;;7.95;1.30;;;;;;;;;;5098331;27;20423;-83
2021/03/22 14:48:19;;;;;;;7.07;1.38;;;;;;;;;;5106996;28;20547;-83
2021/03/22 14:50:48;;;;;;;8.77;1.90;;;;;;;;;;5105936;28;20134;-82
2021/03/22 14:53:15;;;;;;;7.55;1.58;;;;;;;;;;5084648;28;20146;-84
2021/03/22 14:55:44;;;;;;;12.57;1.75;;;;;;;;;;5090205;28;20443;-82
2021/03/22 14:58:10;;;;;;;7.45;1.73;;;;;;;;;;5085189;28;20040;-82
2021/03/22 15:00:38;;;;;;;10.55;1.75;;;;;;;;;;5083880;28;20344;-82
2021/03/22 15:03:06;;;;;;;7.50;2.20;;;;;;;;;;5104025;28;20052;-83
2021/03/22 15:05:34;;;;;;;6.57;1.60;;;;;;;;;;5102912;28;20161;-83
2021/03/22 15:08:03;;;;;;;7.63;1.85;;;;;;;;;;5105788;28;20228;-83
2021/03/22 15:10:33;;;;;;;11.77;1.50;;;;;;;;;;5100105;28;20165;-84